Time;durP1;ratioP1;P1;durP2;ratioP2;P2;SDS_P1;SDS_P2;PMS_P1;PMS_P2;Temp;Humidity;BMP_temperature;BMP_pressure;BME280_temperature;BME280_humidity;BME280_pressure;Samples;Min_cycle;Max_cycle;Signal;HPM_P1;HPM_P2
2021/10/25 00:02:04;;;;;;;;;14.50;12.50;;;;;11.24;65.89;101683.44;5034121;28;45366;-75
2021/10/25 00:04:30;;;;;;;;;14.00;10.33;;;;;11.23;65.92;101676.31;5034181;28;45476;-76
2021/10/25 00:06:56;;;;;;;;;11.00;10.00;;;;;11.22;65.64;101669.25;5033167;28;47341;-76
2021/10/25 00:09:21;;;;;;;;;9.67;9.67;;;;;11.21;65.96;101680.69;5034218;28;45558;-76
2021/10/25 00:11:47;;;;;;;;;9.00;8.67;;;;;11.18;65.86;101667.41;5033829;28;54661;-75
2021/10/25 00:14:12;;;;;;;;;7.00;7.00;;;;;11.22;65.89;101679.84;5034213;28;45540;-76
2021/10/25 00:16:38;;;;;;;;;9.67;8.00;;;;;11.20;65.98;101662.19;5034052;28;46799;-75
2021/10/25 00:19:04;;;;;;;;;6.33;6.33;;;;;11.29;65.82;101680.84;5034191;28;45513;-76
2021/10/25 00:21:29;;;;;;;;;7.00;7.00;;;;;11.32;66.01;101682.69;5034347;28;45379;-76
2021/10/25 00:23:55;;;;;;;;;8.00;5.00;;;;;11.35;65.99;101674.84;5034226;28;45582;-76
2021/10/25 00:26:20;;;;;;;;;8.00;6.33;;;;;11.37;65.91;101668.72;5033571;28;56125;-76
2021/10/25 00:28:45;;;;;;;;;10.00;8.33;;;;;11.40;65.72;101671.44;5033361;28;56214;-77
2021/10/25 00:31:11;;;;;;;;;10.00;8.00;;;;;11.41;65.69;101667.91;5033750;28;48126;-75
2021/10/25 00:33:36;;;;;;;;;7.00;7.00;;;;;11.42;65.77;101672.34;5033973;28;45423;-76
2021/10/25 00:36:02;;;;;;;;;15.50;12.00;;;;;11.42;66.00;101671.44;5033561;28;57928;-75
2021/10/25 00:38:27;;;;;;;;;17.25;15.25;;;;;11.41;65.92;101670.56;5033229;28;45478;-76
2021/10/25 00:40:53;;;;;;;;;21.00;16.75;;;;;11.36;66.00;101656.34;5033796;28;49050;-76
2021/10/25 00:43:19;;;;;;;;;21.00;18.00;;;;;11.43;66.12;101663.53;5033693;28;45426;-76
2021/10/25 00:45:44;;;;;;;;;18.75;18.00;;;;;11.45;66.40;101668.84;5033418;28;61209;-76
2021/10/25 00:48:10;;;;;;;;;26.75;21.75;;;;;11.45;66.19;101655.63;5033391;28;45393;-76
2021/10/25 00:50:35;;;;;;;;;25.25;20.25;;;;;11.50;66.39;101660.19;5033611;28;45579;-76
2021/10/25 00:53:01;;;;;;;;;31.75;22.00;;;;;11.58;66.39;101656.78;5033590;28;45660;-76
2021/10/25 00:55:26;;;;;;;;;27.75;25.00;;;;;11.64;66.43;101660.44;5033236;28;46457;-75
2021/10/25 00:57:52;;;;;;;;;25.50;23.25;;;;;11.70;66.41;101663.22;5033402;28;45475;-76
2021/10/25 01:00:17;;;;;;;;;33.25;26.50;;;;;11.76;66.54;101662.44;5033257;28;45332;-76
2021/10/25 01:02:43;;;;;;;;;30.25;27.00;;;;;11.82;66.49;101662.59;5033246;28;45651;-76
2021/10/25 01:05:08;;;;;;;;;26.50;25.75;;;;;11.88;66.46;101664.44;5033048;28;59060;-76
2021/10/25 01:07:34;;;;;;;;;31.50;28.00;;;;;11.92;66.46;101672.47;5033582;28;45913;-76
2021/10/25 01:10:01;;;;;;;;;37.25;31.25;;;;;11.98;66.50;101666.41;5015502;28;45466;-76
2021/10/25 01:12:26;;;;;;;;;25.50;23.00;;;;;12.04;66.36;101669.19;4999346;28;45661;-76
2021/10/25 01:14:51;;;;;;;;;30.25;26.25;;;;;12.09;66.32;101671.91;5032161;28;61272;-76
2021/10/25 01:17:17;;;;;;;;;27.50;25.75;;;;;12.12;66.30;101679.91;5033324;28;45447;-76
2021/10/25 01:19:42;;;;;;;;;33.25;31.00;;;;;12.16;66.50;101682.66;5032331;28;45899;-76
2021/10/25 01:22:08;;;;;;;;;36.75;32.75;;;;;12.16;66.29;101666.75;5033323;28;47227;-76
2021/10/25 01:24:33;;;;;;;;;35.75;28.25;;;;;12.21;65.75;101669.50;5032702;28;60233;-76
2021/10/25 01:26:59;;;;;;;;;30.75;29.00;;;;;12.23;65.91;101666.00;5032586;28;45921;-76
2021/10/25 01:29:24;;;;;;;;;30.75;28.25;;;;;12.33;66.05;101677.66;5033412;28;45435;-76
2021/10/25 01:31:49;;;;;;;;;28.25;26.50;;;;;12.37;66.10;101675.94;5031737;28;52366;-76
2021/10/25 01:34:15;;;;;;;;;29.25;26.50;;;;;12.35;66.25;101678.56;5025666;28;60261;-76
2021/10/25 01:36:41;;;;;;;;;32.00;25.50;;;;;12.42;66.26;101672.50;5032783;28;45803;-76
2021/10/25 01:39:07;;;;;;;;;28.00;27.25;;;;;12.45;65.99;101675.19;5033115;28;51183;-76
2021/10/25 01:41:32;;;;;;;;;33.75;25.00;;;;;12.45;65.96;101664.59;5033045;28;45553;-75
2021/10/25 01:43:58;;;;;;;;;27.25;24.75;;;;;12.50;66.07;101664.69;5032956;28;46635;-76
2021/10/25 01:46:23;;;;;;;;;29.00;26.00;;;;;12.51;66.10;101667.34;5031493;28;60536;-76
2021/10/25 01:48:49;;;;;;;;;29.50;29.50;;;;;12.54;66.11;101664.75;5032750;28;46879;-76
2021/10/25 01:51:14;;;;;;;;;32.25;28.00;;;;;12.51;65.75;101648.81;5032596;28;45418;-76
2021/10/25 01:53:39;;;;;;;;;32.75;26.50;;;;;12.58;66.02;101657.75;5014252;28;60937;-75
2021/10/25 01:56:06;;;;;;;;;28.50;25.50;;;;;12.61;66.23;101667.50;5032210;28;56142;-76
2021/10/25 01:58:31;;;;;;;;;26.75;24.75;;;;;12.62;66.28;101669.28;5033005;28;45407;-76
2021/10/25 02:00:57;;;;;;;;;28.00;24.25;;;;;12.63;65.97;101656.09;5032532;28;45948;-77
2021/10/25 02:03:22;;;;;;;;;26.25;24.25;;;;;12.61;66.45;101655.16;5032654;28;47301;-76
2021/10/25 02:05:48;;;;;;;;;28.50;23.00;;;;;12.63;66.11;101655.19;5032653;28;45497;-76
2021/10/25 02:08:13;;;;;;;;;25.75;24.50;;;;;12.67;66.48;101652.59;5032362;28;48692;-76
2021/10/25 02:10:38;;;;;;;;;28.25;25.00;;;;;12.65;66.34;101648.16;5032860;28;45818;-76
2021/10/25 02:13:04;;;;;;;;;24.25;22.50;;;;;12.70;66.30;101647.34;5031963;28;57496;-75
2021/10/25 02:15:29;;;;;;;;;27.25;26.00;;;;;12.71;66.24;101648.25;5031860;28;45498;-76
2021/10/25 02:17:55;;;;;;;;;24.50;21.75;;;;;12.70;66.29;101634.09;5032255;28;45555;-76
2021/10/25 02:20:21;;;;;;;;;29.75;26.00;;;;;12.70;66.37;101644.69;5032114;28;45530;-76
2021/10/25 02:22:47;;;;;;;;;28.50;21.00;;;;;12.76;66.28;101649.19;5032182;28;45515;-76
2021/10/25 02:25:12;;;;;;;;;30.00;22.50;;;;;12.77;66.68;101658.94;5032105;28;45454;-75
2021/10/25 02:27:38;;;;;;;;;25.00;22.50;;;;;12.78;66.44;101647.44;5031938;28;54352;-76
2021/10/25 02:30:04;;;;;;;;;23.75;21.50;;;;;12.79;66.43;101657.22;5032143;28;45578;-76
2021/10/25 02:32:30;;;;;;;;;21.00;21.00;;;;;12.80;66.56;101643.09;5031269;28;47565;-76
2021/10/25 02:34:56;;;;;;;;;24.00;22.75;;;;;12.80;66.26;101649.28;5031539;28;45454;-76
2021/10/25 02:37:22;;;;;;;;;25.25;21.00;;;;;12.81;66.49;101648.41;5032280;28;45481;-76
2021/10/25 02:39:47;;;;;;;;;23.25;23.00;;;;;12.82;66.66;101634.28;5032096;28;45825;-76
2021/10/25 02:42:13;;;;;;;;;23.75;21.00;;;;;12.82;66.77;101634.28;5032133;28;47343;-76
2021/10/25 02:44:38;;;;;;;;;22.00;20.25;;;;;12.77;66.90;101628.00;5034722;28;45392;-76
2021/10/25 02:47:04;;;;;;;;;25.25;22.00;;;;;12.75;67.23;101612.97;5017518;28;45388;-76
2021/10/25 02:49:30;;;;;;;;;24.75;21.00;;;;;12.83;67.30;101622.78;5034467;28;45388;-76
2021/10/25 02:51:55;;;;;;;;;22.50;22.50;;;;;12.78;67.46;101619.22;5035452;28;46538;-76
2021/10/25 02:54:21;;;;;;;;;25.00;20.00;;;;;12.83;67.16;101622.78;5035448;28;45708;-76
2021/10/25 02:56:47;;;;;;;;;27.25;24.00;;;;;12.79;67.32;101615.69;5035663;28;46010;-76
2021/10/25 02:59:12;;;;;;;;;21.75;20.25;;;;;12.83;67.69;101621.91;5035659;28;45476;-76
2021/10/25 03:01:38;;;;;;;;;24.00;20.25;;;;;12.80;67.87;101600.69;5035174;28;46080;-76
2021/10/25 03:04:04;;;;;;;;;26.75;19.25;;;;;12.84;67.90;101613.13;5034988;28;45913;-76
2021/10/25 03:06:30;;;;;;;;;23.00;21.75;;;;;12.83;67.83;101608.66;5035279;28;45474;-76
2021/10/25 03:08:55;;;;;;;;;25.50;23.75;;;;;12.81;67.90;101611.28;5035272;28;45463;-76
2021/10/25 03:11:21;;;;;;;;;23.75;21.00;;;;;12.82;68.30;101612.19;5034693;28;59679;-76
2021/10/25 03:13:46;;;;;;;;;26.75;24.50;;;;;12.80;68.54;101616.59;5034851;28;45495;-76
2021/10/25 03:16:12;;;;;;;;;23.25;21.00;;;;;12.81;68.58;101621.00;5034494;28;50083;-76
2021/10/25 03:18:37;;;;;;;;;26.00;24.25;;;;;12.80;68.35;101620.13;5035078;28;45501;-76
2021/10/25 03:21:03;;;;;;;;;27.00;24.75;;;;;12.80;68.39;101616.59;5034802;28;45776;-76
2021/10/25 03:23:28;;;;;;;;;23.75;20.25;;;;;12.79;68.68;101610.41;5034873;28;45431;-76
2021/10/25 03:25:53;;;;;;;;;26.00;23.50;;;;;12.79;68.60;101610.41;5034840;28;46785;-76
2021/10/25 03:28:19;;;;;;;;;27.50;24.25;;;;;12.79;68.91;101605.09;5035002;28;45406;-76
2021/10/25 03:30:44;;;;;;;;;31.75;24.75;;;;;12.76;68.82;101602.38;5035142;28;46418;-76
2021/10/25 03:33:10;;;;;;;;;29.00;23.00;;;;;12.74;69.05;101590.00;5033313;28;45586;-77
2021/10/25 03:35:35;;;;;;;;;21.00;21.00;;;;;12.77;69.24;101593.56;5034984;28;45502;-76
2021/10/25 03:38:01;;;;;;;;;27.50;24.00;;;;;12.73;69.42;101586.47;5034952;28;45682;-76
2021/10/25 03:40:28;;;;;;;;;32.25;26.50;;;;;12.79;69.34;101605.09;5034081;28;47299;-76
2021/10/25 03:42:55;;;;;;;;;27.75;25.75;;;;;12.78;69.48;101600.66;5034557;28;45515;-76
2021/10/25 03:45:32;;;;;;;;;27.75;24.25;;;;;12.79;69.74;101606.84;5035388;28;45589;-76
2021/10/25 03:48:11;;;;;;;;;32.50;27.00;;;;;12.78;69.71;101603.31;5034734;28;45392;-76
2021/10/25 03:50:38;;;;;;;;;26.75;22.00;;;;;12.81;69.96;101607.75;5034202;28;46709;-76
2021/10/25 03:53:16;;;;;;;;;26.75;20.00;;;;;12.80;69.76;101611.28;5034722;28;45397;-76
2021/10/25 04:30:30;;;;;;;;;7.33;6.00;;;;;12.82;71.04;101597.16;5034138;28;45467;-77
2021/10/25 04:32:55;;;;;;;;;9.00;7.33;;;;;12.81;71.15;101592.75;5032214;28;46913;-77
2021/10/25 04:35:21;;;;;;;;;10.00;10.00;;;;;12.83;71.30;101596.28;5033925;28;46303;-77
2021/10/25 04:37:46;;;;;;;;;12.67;10.67;;;;;12.84;71.15;101592.81;5034234;28;52142;-77
2021/10/25 04:40:13;;;;;;;;;10.00;8.33;;;;;12.84;71.18;101600.75;5033410;28;55604;-77
2021/10/25 04:42:38;;;;;;;;;12.00;11.00;;;;;12.81;71.24;101594.50;5033732;28;47480;-77
2021/10/25 04:45:04;;;;;;;;;10.67;10.67;;;;;12.89;71.25;101594.59;5032811;28;45420;-77
2021/10/25 04:47:30;;;;;;;;;10.00;7.67;;;;;12.89;71.06;101597.25;5037030;28;45434;-77
2021/10/25 04:49:55;;;;;;;;;12.00;9.67;;;;;12.89;70.88;101587.56;5033131;28;45492;-77
2021/10/25 04:52:21;;;;;;;;;10.00;9.00;;;;;12.90;71.16;101596.41;5032933;28;59555;-77
2021/10/25 04:54:46;;;;;;;;;11.33;10.00;;;;;12.88;70.92;101588.41;5033463;28;45420;-77
2021/10/25 04:57:11;;;;;;;;;11.67;9.00;;;;;12.92;71.36;101594.66;5033477;28;48419;-77
2021/10/25 04:59:37;;;;;;;;;11.00;10.00;;;;;12.91;71.36;101588.47;5033974;28;45598;-77
2021/10/25 05:02:03;;;;;;;;;15.33;12.00;;;;;12.91;71.19;101585.81;5030865;28;50065;-77
2021/10/25 05:04:29;;;;;;;;;10.00;10.00;;;;;12.95;71.50;101592.94;5033563;28;45403;-78
2021/10/25 05:06:55;;;;;;;;;10.00;10.00;;;;;12.97;71.23;101601.78;5032080;28;45409;-77
2021/10/25 05:09:20;;;;;;;;;13.33;12.00;;;;;12.94;71.42;101587.59;5033361;28;49552;-77
2021/10/25 05:11:45;;;;;;;;;16.00;11.67;;;;;12.97;71.34;101598.25;5032923;28;46489;-77
2021/10/25 05:14:11;;;;;;;;;13.33;12.33;;;;;12.98;71.31;101589.44;5033209;28;45395;-77
2021/10/25 05:16:36;;;;;;;;;11.67;10.67;;;;;12.98;71.49;101589.44;5032164;28;58042;-77
2021/10/25 05:19:02;;;;;;;;;12.33;10.33;;;;;12.98;71.73;101587.66;5033603;28;45526;-76
2021/10/25 05:21:27;;;;;;;;;15.33;13.00;;;;;13.00;71.55;101585.06;5032918;28;45623;-76
2021/10/25 05:23:53;;;;;;;;;16.33;12.33;;;;;12.99;71.29;101585.91;5027354;28;45699;-76
2021/10/25 05:26:18;;;;;;;;;16.00;13.33;;;;;13.00;71.21;101585.94;5031807;28;49929;-76
2021/10/25 05:28:43;;;;;;;;;12.67;11.67;;;;;12.97;71.49;101575.28;5032976;28;54609;-76
2021/10/25 05:31:12;;;;;;;;;14.33;14.33;;;;;13.01;71.21;101582.41;5033266;28;46474;-76
2021/10/25 05:33:39;;;;;;;;;13.67;12.00;;;;;12.96;71.31;101567.31;5027678;28;45493;-76
2021/10/25 05:36:05;;;;;;;;;13.33;12.00;;;;;12.98;71.71;101569.09;5033067;28;45519;-76
2021/10/25 05:38:30;;;;;;;;;14.67;12.00;;;;;13.00;71.69;101574.47;5029984;28;46310;-76
2021/10/25 05:40:55;;;;;;;;;19.67;14.00;;;;;13.00;71.63;101578.00;5030728;28;47415;-76
2021/10/25 05:43:21;;;;;;;;;16.00;13.00;;;;;12.96;71.74;101557.59;5032171;28;46277;-76
2021/10/25 05:45:47;;;;;;;;;12.00;12.00;;;;;13.01;71.42;101569.16;5031846;28;45487;-76
2021/10/25 05:48:12;;;;;;;;;14.00;13.00;;;;;13.00;71.57;101564.75;5029147;28;49646;-76
2021/10/25 05:50:38;;;;;;;;;14.67;12.67;;;;;13.03;72.11;101559.44;5031037;28;47758;-77
2021/10/25 05:53:03;;;;;;;;;14.00;12.33;;;;;13.05;71.95;101554.19;5032148;28;54564;-77
2021/10/25 05:55:29;;;;;;;;;16.33;13.00;;;;;13.00;71.55;101561.19;5033037;28;45538;-77
2021/10/25 05:57:55;;;;;;;;;14.67;13.00;;;;;13.05;71.52;101557.72;5032802;28;45474;-76
2021/10/25 06:00:25;;;;;;;;;17.00;15.00;;;;;13.07;71.85;101563.94;5014347;28;47280;-77
2021/10/25 06:02:57;;;;;;;;;19.67;13.67;;;;;13.07;71.68;101561.28;5029336;28;45493;-76
2021/10/25 06:05:24;;;;;;;;;19.67;16.00;;;;;13.05;72.02;101564.81;5029694;28;45532;-77
2021/10/25 06:07:50;;;;;;;;;13.00;13.00;;;;;13.09;71.91;101564.81;5033505;28;45443;-77
2021/10/25 06:10:17;;;;;;;;;18.67;15.67;;;;;13.07;71.79;101560.41;5027967;28;47314;-77
2021/10/25 06:12:45;;;;;;;;;15.67;14.33;;;;;13.10;72.17;101563.97;5032952;28;45495;-77
2021/10/25 06:15:16;;;;;;;;;14.00;14.00;;;;;13.11;72.12;101565.75;5030876;28;45526;-78
2021/10/25 06:20:18;;;;;;;;;14.00;13.00;;;;;13.04;73.18;101544.44;5032165;28;45968;-80
2021/10/25 06:22:43;;;;;;;;;17.33;13.33;;;;;13.02;74.44;101560.34;4997513;28;45423;-80
2021/10/25 06:25:12;;;;;;;;;18.33;14.00;;;;;12.90;74.12;101565.47;5027162;28;51416;-80
2021/10/25 06:27:37;;;;;;;;;17.33;13.67;;;;;12.76;75.21;101577.66;5010190;28;45802;-82
2021/10/25 06:30:03;;;;;;;;;16.00;13.00;;;;;12.62;75.02;101584.50;5007803;28;46552;-82
2021/10/25 06:32:29;;;;;;;;;19.00;16.00;;;;;12.54;75.22;101589.69;5009589;28;45460;-87
2021/10/25 06:34:56;;;;;;;;;14.50;14.50;;;;;12.41;76.49;101574.47;4993313;28;45580;-82
2021/10/25 06:37:26;;;;;;;;;17.00;15.00;;;;;12.39;75.99;101579.75;5012178;28;45409;-84
2021/10/25 06:39:56;;;;;;;;;18.33;11.33;;;;;12.35;77.03;101585.84;5014308;28;46576;-82
2021/10/25 06:42:23;;;;;;;;;14.33;12.67;;;;;12.29;77.74;101593.72;5011277;28;45533;-82
2021/10/25 06:44:51;;;;;;;;;20.25;16.50;;;;;12.23;76.71;101588.31;5012230;28;45448;-83
2021/10/25 06:47:18;;;;;;;;;15.25;12.75;;;;;12.18;76.39;101588.25;4961423;28;45607;-85
2021/10/25 06:49:43;;;;;;;;;18.00;16.00;;;;;12.18;77.12;101588.25;4972408;28;46086;-83
2021/10/25 06:52:09;;;;;;;;;15.25;14.75;;;;;12.17;77.83;101590.88;4992651;28;45488;-84
2021/10/25 06:54:34;;;;;;;;;19.00;14.33;;;;;12.13;77.47;101591.69;4979528;28;45517;-85
2021/10/25 06:56:59;;;;;;;;;15.75;15.25;;;;;12.12;79.32;101589.91;5009820;28;45630;-81
2021/10/25 06:59:25;;;;;;;;;20.00;14.33;;;;;12.16;77.53;101610.28;4992538;28;45634;-74
2021/10/25 07:01:50;;;;;;;;;18.33;14.67;;;;;12.22;76.53;101603.31;5007039;28;57787;-77
2021/10/25 07:04:16;;;;;;;;;18.33;15.00;;;;;12.29;76.61;101606.94;4996033;28;46254;-75
2021/10/25 07:06:41;;;;;;;;;20.50;16.00;;;;;12.36;76.92;101606.22;5008759;28;46836;-77
2021/10/25 07:09:07;;;;;;;;;17.75;13.50;;;;;12.45;76.27;101608.09;5010525;28;45724;-77
2021/10/25 07:11:34;;;;;;;;;23.67;17.00;;;;;12.51;75.82;101608.19;5010718;28;45567;-75
2021/10/25 07:14:00;;;;;;;;;19.00;17.67;;;;;12.53;76.05;101602.06;5010971;28;45578;-76
2021/10/25 07:16:40;;;;;;;;;18.50;16.50;;;;;12.59;75.86;101612.75;5010602;28;45467;-76
2021/10/25 08:07:36;;;;;;;;;18.33;16.00;;;;;13.17;74.86;101643.59;5016943;28;45519;-85
2021/10/25 08:10:09;;;;;;;;;18.00;15.00;;;;;13.22;75.13;101653.44;5033673;28;45539;-85
2021/10/25 08:12:36;;;;;;;;;17.67;13.33;;;;;13.23;75.04;101654.31;5016751;28;47698;-86
2021/10/25 08:15:05;;;;;;;;;14.00;14.00;;;;;13.26;74.79;101651.69;5015361;28;45507;-84
2021/10/25 08:17:56;;;;;;;;;17.00;14.67;;;;;13.31;74.92;101653.53;5001016;28;45488;-82
2021/10/25 08:20:21;;;;;;;;;26.33;20.00;;;;;13.33;74.78;101646.50;5032155;28;45511;-85
2021/10/25 08:22:47;;;;;;;;;19.33;17.00;;;;;13.41;74.67;101651.00;5015648;28;46626;-83
2021/10/25 08:25:12;;;;;;;;;17.33;17.00;;;;;13.44;74.71;101645.75;5126813;22;45316;-83
2021/10/25 08:27:38;;;;;;;;;19.67;15.33;;;;;13.41;75.12;101635.97;4967760;28;45635;-85
2021/10/25 08:30:06;;;;;;;;;24.00;19.67;;;;;13.46;74.35;101631.63;4979964;28;45539;-85
2021/10/25 08:40:31;;;;;;;;;19.00;15.00;;;;;13.57;74.29;101634.41;4950644;28;45509;-84
2021/10/25 08:42:57;;;;;;;;;19.33;17.00;;;;;13.62;74.12;101636.22;4954046;28;47166;-83
2021/10/25 08:45:30;;;;;;;;;28.33;19.33;;;;;13.62;74.39;101638.88;4989978;28;54628;-86
2021/10/25 08:47:56;;;;;;;;;20.33;19.00;;;;;13.63;74.40;101632.72;4958803;28;45563;-90
2021/10/25 08:50:24;;;;;;;;;20.00;18.33;;;;;13.61;74.13;101629.16;4959515;28;45565;-89
2021/10/25 08:52:50;;;;;;;;;24.00;19.00;;;;;13.67;73.74;101630.97;4954694;28;46277;-76
2021/10/25 08:55:18;;;;;;;;;21.33;18.00;;;;;13.70;73.76;101636.34;4958883;28;45604;-76
2021/10/25 08:57:48;;;;;;;;;21.33;18.67;;;;;13.76;73.69;101632.84;4985784;28;45488;-76
2021/10/25 09:00:16;;;;;;;;;15.67;14.33;;;;;13.80;73.42;101632.03;4972768;28;45489;-75
2021/10/25 09:02:42;;;;;;;;;18.33;17.67;;;;;13.84;73.93;101629.38;4970414;28;45518;-77
2021/10/25 09:05:11;;;;;;;;;23.67;19.00;;;;;13.84;73.51;101612.56;4984148;28;45940;-77
2021/10/25 09:07:51;;;;;;;;;21.67;17.00;;;;;13.82;73.70;101612.56;4990570;28;45528;-76
2021/10/25 09:10:24;;;;;;;;;25.33;19.33;;;;;13.76;73.26;101607.19;4981003;28;45389;-79
2021/10/25 09:13:13;;;;;;;;;21.33;17.33;;;;;13.74;73.73;101611.63;4943727;28;47526;-76
2021/10/25 09:15:39;;;;;;;;;22.00;20.00;;;;;13.81;74.08;101609.91;4977556;28;45481;-77
2021/10/25 09:18:16;;;;;;;;;17.00;14.67;;;;;13.89;73.65;101610.84;4979550;28;46606;-76
2021/10/25 09:20:53;;;;;;;;;17.67;15.67;;;;;14.01;73.34;101600.38;4983735;28;45603;-76
2021/10/25 09:23:21;;;;;;;;;13.67;13.00;;;;;14.16;73.53;101597.81;4987243;28;47307;-79
2021/10/25 09:26:02;;;;;;;;;17.67;14.00;;;;;14.30;72.70;101613.88;4987560;28;45550;-76
2021/10/25 09:28:30;;;;;;;;;21.00;17.00;;;;;14.37;72.92;101614.81;4983545;28;45607;-76
2021/10/25 09:31:01;;;;;;;;;15.00;12.00;;;;;14.31;72.34;101593.53;4985249;28;45493;-76
2021/10/25 09:33:35;;;;;;;;;17.00;15.33;;;;;14.44;72.71;101599.84;4988396;28;47551;-79
2021/10/25 09:36:05;;;;;;;;;22.67;19.67;;;;;14.47;72.17;101594.53;4989377;28;45640;-77
2021/10/25 09:41:37;;;;;;;;;17.67;16.00;;;;;14.65;72.47;101608.00;4981988;28;45504;-77
2021/10/25 09:49:38;;;;;;;;;22.67;18.33;;;;;14.85;71.76;101602.78;4983086;28;45355;-76
2021/10/25 09:52:06;;;;;;;;;21.67;17.67;;;;;14.91;72.32;101597.50;4982241;28;45498;-76
2021/10/25 09:54:33;;;;;;;;;25.67;20.33;;;;;15.01;71.78;101606.41;4986954;28;45493;-77
2021/10/25 09:57:03;;;;;;;;;19.67;19.33;;;;;15.04;71.90;101595.81;4972235;28;45517;-77
2021/10/25 10:02:07;;;;;;;;;25.00;20.67;;;;;15.20;71.13;101610.97;4980224;28;45482;-77
2021/10/25 10:04:33;;;;;;;;;21.00;20.00;;;;;15.20;70.94;101601.19;4964938;28;52132;-76
2021/10/25 10:06:59;;;;;;;;;20.67;20.00;;;;;15.33;71.15;101614.53;4970526;28;45582;-76
2021/10/25 10:09:25;;;;;;;;;23.67;19.33;;;;;15.39;70.60;101612.81;4967765;28;45471;-76
2021/10/25 10:11:50;;;;;;;;;17.67;16.33;;;;;15.41;70.79;101612.81;4988869;28;45534;-76
2021/10/25 10:14:16;;;;;;;;;20.00;17.00;;;;;15.49;70.94;101621.69;4975455;28;46116;-76
2021/10/25 10:16:42;;;;;;;;;19.67;16.00;;;;;15.60;70.20;101621.72;4989496;28;56622;-76
2021/10/25 10:19:08;;;;;;;;;18.00;15.00;;;;;15.77;69.70;101622.72;4973202;28;45478;-76
2021/10/25 10:21:33;;;;;;;;;26.00;18.67;;;;;15.92;70.07;101625.38;4969463;28;45774;-79
2021/10/25 10:24:04;;;;;;;;;18.33;18.33;;;;;16.05;69.76;101618.31;4989573;28;45614;-78
2021/10/25 10:26:32;;;;;;;;;19.67;17.67;;;;;16.18;69.58;101612.09;4988255;28;45607;-78
2021/10/25 10:29:10;;;;;;;;;19.00;14.67;;;;;16.31;68.53;101623.66;4979192;28;45419;-78
2021/10/25 10:31:36;;;;;;;;;19.00;18.00;;;;;16.33;68.84;101619.22;4987910;28;45638;-80
2021/10/25 10:34:12;;;;;;;;;19.33;16.33;;;;;16.37;69.13;101617.44;4967857;28;45849;-77
2021/10/25 10:36:37;;;;;;;;;19.67;14.33;;;;;16.46;68.89;101629.00;4989388;28;46086;-78
2021/10/25 10:39:06;;;;;;;;;17.67;15.67;;;;;16.47;68.51;101624.56;4949960;28;51243;-79
2021/10/25 10:41:44;;;;;;;;;19.67;12.67;;;;;16.37;68.56;101630.78;4982229;28;45459;-76
2021/10/25 10:44:16;;;;;;;;;16.33;15.00;;;;;16.23;68.46;101642.31;4988004;28;46694;-77
2021/10/25 10:46:43;;;;;;;;;13.33;13.00;;;;;16.06;68.47;101638.75;4983231;28;45465;-76
2021/10/25 10:49:21;;;;;;;;;11.00;10.00;;;;;15.99;68.57;101644.97;4970183;28;45598;-76
2021/10/25 10:52:07;;;;;;;;;16.00;11.67;;;;;15.99;68.70;101642.28;4983952;28;45485;-76
2021/10/25 10:54:57;;;;;;;;;11.33;11.33;;;;;15.96;68.71;101632.50;4973526;28;45557;-76
2021/10/25 11:00:08;;;;;;;;;13.33;12.33;;;;;15.96;68.55;101645.81;4990234;28;45478;-78
2021/10/25 11:02:33;;;;;;;;;13.67;11.33;;;;;15.98;68.60;101649.41;4989083;28;45559;-77
2021/10/25 11:05:07;;;;;;;;;16.00;10.00;;;;;15.94;68.37;101644.94;4984251;28;51430;-76
2021/10/25 11:07:38;;;;;;;;;12.00;11.00;;;;;16.00;68.62;101637.84;4985331;28;45480;-76
2021/10/25 11:10:03;;;;;;;;;18.33;13.67;;;;;16.05;68.45;101644.09;4958143;28;45446;-77
2021/10/25 11:12:29;;;;;;;;;12.67;9.67;;;;;16.01;68.39;101639.63;4989322;28;45655;-76
2021/10/25 11:14:56;;;;;;;;;10.00;8.67;;;;;16.03;68.52;101649.38;4984097;28;58162;-77
2021/10/25 11:17:26;;;;;;;;;13.00;12.00;;;;;16.01;68.85;101642.28;4975122;28;45427;-76
2021/10/25 11:19:52;;;;;;;;;16.00;10.00;;;;;16.00;68.88;101637.84;4960204;28;45420;-76
2021/10/25 11:22:34;;;;;;;;;10.00;10.00;;;;;15.96;68.51;101636.94;4992726;28;46196;-79
2021/10/25 11:25:00;;;;;;;;;10.33;10.33;;;;;15.97;68.80;101636.94;4974924;28;46730;-76
2021/10/25 11:27:36;;;;;;;;;10.00;8.67;;;;;15.92;69.06;101638.72;4992539;28;45505;-79
2021/10/25 11:30:04;;;;;;;;;11.00;10.00;;;;;15.93;69.11;101631.63;4992362;28;45454;-76
2021/10/25 11:32:29;;;;;;;;;15.67;11.67;;;;;15.96;69.46;101626.28;5002258;27;45916;-76
2021/10/25 11:34:55;;;;;;;;;9.00;9.00;;;;;15.98;68.61;101629.88;4963708;28;46301;-78
2021/10/25 11:37:22;;;;;;;;;10.33;10.33;;;;;16.02;68.79;101630.75;4991016;28;45549;-76
2021/10/25 11:39:56;;;;;;;;;9.33;9.33;;;;;16.02;68.79;101631.63;4992604;28;45453;-76
2021/10/25 11:42:29;;;;;;;;;14.67;10.33;;;;;16.07;68.72;101619.19;4975396;28;45540;-76
2021/10/25 11:44:56;;;;;;;;;14.00;11.67;;;;;16.11;68.73;101617.44;4968925;28;47228;-77
2021/10/25 11:47:27;;;;;;;;;13.33;12.00;;;;;16.07;68.74;101619.19;4974120;28;45504;-76
2021/10/25 11:49:52;;;;;;;;;14.33;9.00;;;;;16.10;68.88;101624.53;4988891;28;45445;-77
2021/10/25 11:52:18;;;;;;;;;11.00;9.33;;;;;16.10;68.99;101621.00;4980793;28;45687;-76
2021/10/25 11:54:46;;;;;;;;;12.67;10.00;;;;;16.15;68.58;101630.78;4984992;28;46799;-76
2021/10/25 11:57:12;;;;;;;;;11.33;8.00;;;;;16.12;68.65;101625.44;4988251;28;45580;-76
2021/10/25 11:59:38;;;;;;;;;9.00;9.00;;;;;16.10;68.92;101623.66;4989377;28;45589;-76
2021/10/25 12:02:09;;;;;;;;;11.67;10.33;;;;;16.07;68.43;101632.53;4986922;28;45551;-78
2021/10/25 12:04:42;;;;;;;;;12.67;11.00;;;;;16.03;68.84;101635.19;4982961;28;46521;-76
2021/10/25 12:07:08;;;;;;;;;14.67;12.33;;;;;16.00;68.90;101633.41;4997539;28;45425;-77
2021/10/25 12:09:33;;;;;;;;;11.00;11.00;;;;;16.00;68.70;101629.88;5014513;28;45700;-79
2021/10/25 12:12:05;;;;;;;;;15.00;12.00;;;;;16.02;68.51;101623.63;4990698;28;45657;-76
2021/10/25 12:14:33;;;;;;;;;13.00;10.33;;;;;16.08;68.72;101623.63;4973465;28;47181;-77
2021/10/25 12:16:59;;;;;;;;;11.00;10.00;;;;;16.15;68.79;101616.56;4969001;28;46099;-76
2021/10/25 12:19:25;;;;;;;;;20.00;17.67;;;;;16.19;68.46;101613.91;4967482;28;45492;-76
2021/10/25 12:21:51;;;;;;;;;15.00;13.00;;;;;16.19;68.37;101613.91;4990162;28;45620;-76
2021/10/25 12:24:19;;;;;;;;;12.67;10.67;;;;;16.26;68.70;101613.91;4973319;28;47142;-76
2021/10/25 12:26:45;;;;;;;;;11.33;9.00;;;;;16.18;68.57;101582.78;4985398;28;45621;-75
2021/10/25 12:29:17;;;;;;;;;12.67;10.33;;;;;16.35;68.34;101600.56;4986415;28;45915;-80
2021/10/25 12:31:43;;;;;;;;;11.67;10.67;;;;;16.36;68.26;101597.03;4979982;28;45434;-76
2021/10/25 12:34:08;;;;;;;;;14.67;12.00;;;;;16.42;68.28;101597.00;4985186;28;46279;-76
2021/10/25 12:36:36;;;;;;;;;11.00;9.00;;;;;16.49;67.65;101590.78;4989932;28;45370;-76
2021/10/25 12:39:05;;;;;;;;;10.00;9.00;;;;;16.60;67.90;101572.09;4989588;28;45576;-77
2021/10/25 12:41:31;;;;;;;;;10.67;10.00;;;;;16.72;67.78;101577.44;4990131;28;45601;-76
2021/10/25 12:43:59;;;;;;;;;16.33;11.00;;;;;16.78;67.73;101580.09;4979495;28;51742;-79
2021/10/25 12:46:32;;;;;;;;;15.33;11.67;;;;;16.87;67.65;101576.50;4994090;28;45468;-76
2021/10/25 12:48:57;;;;;;;;;17.67;15.00;;;;;16.96;67.27;101574.69;4990247;28;45623;-76
2021/10/25 12:51:36;;;;;;;;;9.67;9.00;;;;;17.02;67.31;101581.78;4988701;28;52937;-76
2021/10/25 12:54:06;;;;;;;;;11.00;8.67;;;;;17.13;66.81;101577.31;4981388;28;47387;-76
2021/10/25 12:56:32;;;;;;;;;12.00;10.00;;;;;17.13;66.41;101577.31;4979378;28;45872;-76
2021/10/25 12:59:07;;;;;;;;;12.00;9.67;;;;;17.12;66.34;101578.19;4985359;28;53455;-76
2021/10/25 13:01:33;;;;;;;;;10.33;10.33;;;;;17.14;66.18;101580.84;4983087;28;45439;-78